Time;durP1;ratioP1;P1;durP2;ratioP2;P2;SDS_P1;SDS_P2;PMS_P1;PMS_P2;Temp;Humidity;BMP_temperature;BMP_pressure;BME280_temperature;BME280_humidity;BME280_pressure;Samples;Min_cycle;Max_cycle;Signal;HPM_P1;HPM_P2
2023/03/08 00:00:14;;;;;;;25.58;9.90;;;;;;;7.36;100.00;99456.31;5058549;28;20056;-72
2023/03/08 00:02:40;;;;;;;22.33;9.80;;;;;;;7.43;100.00;99459.97;5056314;28;20029;-71
2023/03/08 00:05:06;;;;;;;19.50;10.32;;;;;;;7.46;100.00;99462.25;5056849;28;20041;-70
2023/03/08 00:07:32;;;;;;;20.02;11.00;;;;;;;7.44;100.00;99466.78;5043497;28;20389;-71
2023/03/08 00:09:57;;;;;;;17.17;10.63;;;;;;;7.40;100.00;99465.44;5042455;28;20036;-71
2023/03/08 00:12:23;;;;;;;17.27;10.68;;;;;;;7.37;100.00;99470.09;5055268;28;20032;-71
2023/03/08 00:14:49;;;;;;;21.67;10.68;;;;;;;7.33;100.00;99485.13;5049943;28;20032;-71
2023/03/08 00:17:15;;;;;;;22.35;11.90;;;;;;;7.29;100.00;99486.38;5057304;28;20056;-71
2023/03/08 00:19:41;;;;;;;21.08;11.05;;;;;;;7.27;100.00;99483.94;5051656;28;20029;-71
2023/03/08 00:22:07;;;;;;;19.20;10.85;;;;;;;7.27;100.00;99486.53;5054505;28;20352;-71
2023/03/08 00:24:32;;;;;;;19.83;11.55;;;;;;;7.27;100.00;99488.31;5055384;28;20117;-71
2023/03/08 00:26:57;;;;;;;22.27;10.77;;;;;;;7.26;100.00;99484.91;5049768;28;20729;-71
2023/03/08 00:29:23;;;;;;;16.08;9.80;;;;;;;7.27;100.00;99485.72;5055214;28;20064;-71
2023/03/08 00:31:48;;;;;;;19.08;11.35;;;;;;;7.26;100.00;99495.25;5061336;28;20039;-71
2023/03/08 00:34:14;;;;;;;21.13;10.95;;;;;;;7.27;100.00;99488.31;5031659;28;20116;-73
2023/03/08 00:36:40;;;;;;;18.65;11.27;;;;;;;7.25;100.00;99488.44;5052040;28;20037;-73
2023/03/08 00:39:05;;;;;;;17.73;10.60;;;;;;;7.25;100.00;99488.44;5054013;28;20032;-71
2023/03/08 00:41:31;;;;;;;20.08;10.88;;;;;;;7.20;100.00;99492.44;5061103;28;20114;-71
2023/03/08 00:43:56;;;;;;;19.58;10.98;;;;;;;7.19;100.00;99486.44;5053105;28;20025;-72
2023/03/08 00:46:23;;;;;;;23.58;10.93;;;;;;;7.19;100.00;99490.81;5056729;28;20044;-72
2023/03/08 00:48:49;;;;;;;21.73;11.00;;;;;;;7.20;100.00;99489.84;5047939;28;20029;-71
2023/03/08 00:51:16;;;;;;;17.70;10.15;;;;;;;7.24;100.00;99486.00;5046869;28;20440;-71
2023/03/08 00:53:42;;;;;;;18.02;9.95;;;;;;;7.25;100.00;99485.03;5050391;28;20033;-71
2023/03/08 00:56:07;;;;;;;15.40;10.57;;;;;;;7.25;100.00;99488.44;5041068;28;20052;-71
2023/03/08 00:58:33;;;;;;;20.67;10.68;;;;;;;7.24;100.00;99483.41;5045757;28;20507;-71
2023/03/08 01:00:59;;;;;;;17.52;9.40;;;;;;;7.24;100.00;99475.63;5036837;28;20086;-72
2023/03/08 01:03:25;;;;;;;20.95;10.57;;;;;;;7.24;100.00;99475.63;5051276;28;20056;-72
2023/03/08 01:05:54;;;;;;;20.83;10.38;;;;;;;7.23;100.00;99479.19;5044066;28;20063;-72
2023/03/08 01:08:21;;;;;;;16.58;9.88;;;;;;;7.24;100.00;99471.28;5049834;28;20063;-71
2023/03/08 01:10:48;;;;;;;23.08;9.80;;;;;;;7.25;100.00;99479.84;5034723;28;20071;-71
2023/03/08 01:13:14;;;;;;;23.45;9.13;;;;;;;7.26;100.00;99471.94;5046275;28;20028;-71
2023/03/08 01:15:39;;;;;;;13.57;7.93;;;;;;;7.33;100.00;99464.41;5050643;28;20039;-71
2023/03/08 01:18:05;;;;;;;12.80;6.55;;;;;;;7.42;100.00;99470.47;5042908;28;20032;-71
2023/03/08 01:20:32;;;;;;;14.35;6.97;;;;;;;7.46;100.00;99464.84;5058580;28;20048;-72
2023/03/08 01:22:57;;;;;;;20.38;7.10;;;;;;;7.49;100.00;99466.31;5046448;28;20165;-72
2023/03/08 01:25:22;;;;;;;15.63;7.43;;;;;;;7.48;100.00;99470.69;5050943;28;20044;-71
2023/03/08 01:27:48;;;;;;;17.30;6.60;;;;;;;7.47;100.00;99470.84;5051990;28;20136;-71
2023/03/08 01:30:14;;;;;;;14.57;7.10;;;;;;;7.46;100.00;99469.22;5053539;28;20065;-71
2023/03/08 01:32:39;;;;;;;16.40;7.45;;;;;;;7.51;100.00;99473.00;5051399;28;20082;-71
2023/03/08 01:35:05;;;;;;;17.55;9.73;;;;;;;7.47;100.00;99463.88;5037517;28;20031;-71
2023/03/08 01:37:31;;;;;;;16.40;9.90;;;;;;;7.40;100.00;99464.63;5045168;28;20033;-71
2023/03/08 01:39:57;;;;;;;20.98;10.40;;;;;;;7.32;100.00;99462.75;5051000;28;20119;-71
2023/03/08 01:42:22;;;;;;;17.90;10.85;;;;;;;7.29;100.00;99463.06;5056855;28;20400;-72
2023/03/08 01:45:00;;;;;;;20.35;10.00;;;;;;;7.25;100.00;99461.72;5035338;28;20034;-71
2023/03/08 01:47:28;;;;;;;23.23;9.73;;;;;;;7.29;100.00;99461.28;5052321;28;20578;-72
2023/03/08 01:49:58;;;;;;;24.10;10.63;;;;;;;7.38;100.00;99464.78;5053400;28;20502;-71
2023/03/08 01:52:30;;;;;;;20.35;9.93;;;;;;;7.46;100.00;99457.06;5050922;28;20029;-71
2023/03/08 01:54:59;;;;;;;20.15;10.13;;;;;;;7.52;100.00;99461.66;5056809;28;20058;-72
2023/03/08 01:57:28;;;;;;;22.00;10.07;;;;;;;7.52;100.00;99464.25;5051246;28;20524;-71
2023/03/08 02:00:25;;;;;;;19.48;9.30;;;;;;;7.43;100.00;99453.97;5050640;28;20090;-71
2023/03/08 02:02:59;;;;;;;19.83;9.75;;;;;;;7.36;100.00;99453.75;5029699;28;20041;-70
2023/03/08 02:05:26;;;;;;;21.00;10.00;;;;;;;7.31;100.00;99454.19;5050067;28;20030;-72
2023/03/08 02:07:51;;;;;;;29.38;12.73;;;;;;;7.34;100.00;99460.84;5051715;28;20024;-71
2023/03/08 02:10:17;;;;;;;24.05;12.02;;;;;;;7.38;100.00;99456.19;5049715;28;20229;-71
2023/03/08 02:12:43;;;;;;;18.35;10.57;;;;;;;7.40;100.00;99449.88;5044647;28;20087;-71
2023/03/08 02:15:11;;;;;;;20.67;10.38;;;;;;;7.38;100.00;99443.22;5046479;28;20133;-71
2023/03/08 02:17:39;;;;;;;19.60;10.00;;;;;;;7.35;100.00;99444.34;5048403;28;20037;-71
2023/03/08 02:20:16;;;;;;;17.33;10.82;;;;;;;7.31;100.00;99438.63;5050329;28;20040;-71
2023/03/08 02:22:43;;;;;;;19.73;10.15;;;;;;;7.26;100.00;99440.03;5051998;28;20123;-71
2023/03/08 02:25:21;;;;;;;17.75;10.13;;;;;;;7.17;100.00;99438.31;5045579;28;20048;-71
2023/03/08 02:27:47;;;;;;;17.08;8.93;;;;;;;7.05;100.00;99445.53;5045075;28;20464;-71
2023/03/08 02:30:15;;;;;;;20.15;9.18;;;;;;;6.90;100.00;99446.97;5052966;28;20043;-71
2023/03/08 02:32:41;;;;;;;20.10;9.43;;;;;;;6.77;100.00;99447.31;5053250;28;20529;-71
2023/03/08 02:35:07;;;;;;;19.30;9.45;;;;;;;6.70;100.00;99448.84;5045832;28;20139;-70
2023/03/08 02:37:33;;;;;;;18.77;10.02;;;;;;;6.64;100.00;99446.84;5047729;28;20198;-71
2023/03/08 02:39:58;;;;;;;21.02;9.93;;;;;;;6.59;100.00;99449.06;5052557;28;20375;-72
2023/03/08 02:42:24;;;;;;;18.83;10.07;;;;;;;6.56;100.00;99449.34;5049810;28;20083;-72
2023/03/08 02:44:49;;;;;;;21.88;10.60;;;;;;;6.51;100.00;99447.19;5050654;28;20071;-71
2023/03/08 02:47:15;;;;;;;16.95;9.68;;;;;;;6.49;100.00;99453.47;5058352;28;20025;-71
2023/03/08 02:49:40;;;;;;;19.00;10.38;;;;;;;6.46;100.00;99453.75;5052052;28;20035;-71
2023/03/08 02:52:06;;;;;;;21.02;9.88;;;;;;;6.43;100.00;99457.44;5049758;28;20425;-72
2023/03/08 02:54:31;;;;;;;21.98;9.38;;;;;;;6.39;100.00;99458.66;5054364;28;20511;-72
2023/03/08 02:56:57;;;;;;;15.25;9.40;;;;;;;6.36;100.00;99452.97;5051264;28;20131;-71
2023/03/08 02:59:22;;;;;;;18.35;10.27;;;;;;;6.28;100.00;99462.25;5050415;28;20489;-71
2023/03/08 03:01:48;;;;;;;22.45;12.07;;;;;;;6.19;100.00;99463.09;5056340;28;20059;-71
2023/03/08 03:04:13;;;;;;;21.73;9.88;;;;;;;6.14;100.00;99465.31;5052496;28;20418;-72
2023/03/08 03:06:38;;;;;;;28.70;12.88;;;;;;;6.10;100.00;99474.31;5049232;28;20049;-71
2023/03/08 03:09:08;;;;;;;26.23;12.43;;;;;;;6.14;100.00;99486.00;5053079;28;20021;-71
2023/03/08 03:11:34;;;;;;;25.05;11.82;;;;;;;6.25;100.00;99487.56;5047368;28;20419;-72
2023/03/08 03:14:00;;;;;;;25.23;11.90;;;;;;;6.38;100.00;99488.09;5054252;28;20040;-71
2023/03/08 03:16:26;;;;;;;22.70;12.55;;;;;;;6.43;100.00;99491.06;5045727;28;20452;-71
2023/03/08 03:18:53;;;;;;;22.17;10.95;;;;;;;6.40;100.00;99490.53;5047074;28;20032;-71
2023/03/08 03:21:19;;;;;;;19.77;10.68;;;;;;;6.38;100.00;99502.78;5051616;28;20029;-72
2023/03/08 03:23:44;;;;;;;21.95;11.52;;;;;;;6.37;100.00;99508.94;5052405;28;20495;-70
2023/03/08 03:26:20;;;;;;;20.70;10.65;;;;;;;6.36;100.00;99502.13;5054308;28;20115;-72
2023/03/08 03:28:46;;;;;;;21.52;11.80;;;;;;;6.35;100.00;99498.72;5052888;28;20447;-71
2023/03/08 03:31:17;;;;;;;16.15;10.70;;;;;;;6.42;100.00;99501.56;5043969;28;20036;-70
2023/03/08 03:33:43;;;;;;;23.13;11.65;;;;;;;6.62;100.00;99493.56;5058982;28;20432;-72
2023/03/08 03:36:12;;;;;;;23.27;10.88;;;;;;;6.63;100.00;99504.72;5049469;28;20083;-71
2023/03/08 03:38:38;;;;;;;18.10;9.68;;;;;;;6.59;100.00;99506.81;5051502;28;20036;-72
2023/03/08 03:41:09;;;;;;;27.80;11.57;;;;;;;6.51;100.00;99511.06;5052764;28;20064;-70
2023/03/08 03:43:35;;;;;;;17.35;9.18;;;;;;;6.42;100.00;99509.31;5051556;28;20028;-73
2023/03/08 03:46:04;;;;;;;18.92;9.68;;;;;;;6.35;100.00;99514.25;5061925;28;20062;-74
2023/03/08 03:48:30;;;;;;;22.17;10.70;;;;;;;6.29;100.00;99510.44;5048906;28;20032;-73
2023/03/08 03:51:03;;;;;;;22.00;9.73;;;;;;;6.23;100.00;99508.41;5056259;28;20119;-73
2023/03/08 03:53:30;;;;;;;17.50;10.88;;;;;;;6.19;100.00;99508.81;5054606;28;20037;-73
2023/03/08 03:56:07;;;;;;;23.52;10.90;;;;;;;6.19;100.00;99509.63;5050150;28;20097;-72
2023/03/08 03:58:33;;;;;;;21.90;10.23;;;;;;;6.17;100.00;99506.38;5055927;28;20128;-73
2023/03/08 04:00:59;;;;;;;21.88;10.57;;;;;;;6.17;100.00;99514.13;5056515;28;20047;-73
2023/03/08 04:03:25;;;;;;;23.55;10.77;;;;;;;6.18;100.00;99518.34;5056865;28;20071;-73
2023/03/08 04:05:50;;;;;;;22.10;11.13;;;;;;;6.19;100.00;99522.56;5048613;28;20476;-72
2023/03/08 04:08:16;;;;;;;21.20;11.77;;;;;;;6.21;100.00;99533.59;5057556;28;20043;-72
2023/03/08 04:10:42;;;;;;;22.13;10.93;;;;;;;6.24;100.00;99530.72;5054325;28;20028;-73
2023/03/08 04:13:10;;;;;;;23.33;10.88;;;;;;;6.26;100.00;99546.94;5046173;28;20105;-72
2023/03/08 04:15:36;;;;;;;20.88;11.80;;;;;;;6.28;100.00;99532.09;5053076;28;20033;-74
2023/03/08 04:18:01;;;;;;;20.05;10.60;;;;;;;6.32;100.00;99541.22;5061618;28;20055;-72
2023/03/08 04:20:27;;;;;;;19.90;10.77;;;;;;;6.35;100.00;99540.13;5051938;28;20385;-72
2023/03/08 04:22:52;;;;;;;19.95;10.52;;;;;;;6.40;100.00;99542.28;5049383;28;20025;-72
2023/03/08 04:25:18;;;;;;;20.27;10.02;;;;;;;6.41;100.00;99538.75;5044525;28;20033;-72
2023/03/08 04:27:44;;;;;;;22.85;10.93;;;;;;;6.43;100.00;99529.88;5042411;28;20035;-73
2023/03/08 04:30:10;;;;;;;18.15;10.00;;;;;;;6.47;100.00;99539.00;5050636;28;20024;-73
2023/03/08 04:32:36;;;;;;;21.60;10.65;;;;;;;6.51;100.00;99542.94;5040582;28;20123;-72
2023/03/08 04:35:01;;;;;;;16.60;9.13;;;;;;;6.53;100.00;99545.38;5053355;28;20135;-72
2023/03/08 04:37:27;;;;;;;19.88;9.98;;;;;;;6.50;100.00;99546.47;5046939;28;20205;-72
2023/03/08 04:39:53;;;;;;;19.30;10.50;;;;;;;6.51;100.00;99552.47;5047361;28;20064;-73
2023/03/08 04:42:19;;;;;;;26.52;11.55;;;;;;;6.50;100.00;99553.44;5051801;28;20041;-72
2023/03/08 04:44:44;;;;;;;22.98;10.77;;;;;;;6.48;100.00;99556.16;5047158;28;20122;-72
2023/03/08 04:47:09;;;;;;;21.30;9.57;;;;;;;6.47;100.00;99564.06;5061090;28;20045;-73
2023/03/08 04:49:35;;;;;;;21.73;10.35;;;;;;;6.49;100.00;99557.78;5031980;28;20120;-73
2023/03/08 04:52:00;;;;;;;18.33;9.13;;;;;;;6.49;100.00;99557.78;5051413;28;20036;-73
2023/03/08 04:54:26;;;;;;;17.30;9.15;;;;;;;6.53;100.00;99568.69;5057248;28;20035;-71
2023/03/08 04:56:51;;;;;;;18.33;10.15;;;;;;;6.55;100.00;99571.94;5050786;28;20135;-72
2023/03/08 04:59:17;;;;;;;17.80;9.80;;;;;;;6.54;100.00;99571.13;5035522;28;20045;-72
2023/03/08 05:01:43;;;;;;;22.70;11.02;;;;;;;6.61;100.00;99576.56;5050239;28;20429;-72
2023/03/08 05:04:11;;;;;;;20.88;9.85;;;;;;;6.61;100.00;99574.78;5044824;28;20065;-73
2023/03/08 05:06:37;;;;;;;18.13;10.10;;;;;;;6.62;100.00;99568.63;5047533;28;20066;-73
2023/03/08 05:09:03;;;;;;;20.08;9.27;;;;;;;6.59;100.00;99571.53;5044434;28;20745;-72
2023/03/08 05:11:29;;;;;;;20.02;9.85;;;;;;;6.60;100.00;99554.22;5038498;28;20365;-72
2023/03/08 05:13:56;;;;;;;16.45;9.98;;;;;;;6.59;100.00;99562.94;5038425;28;20045;-72
2023/03/08 05:16:22;;;;;;;23.17;9.68;;;;;;;6.60;100.00;99567.16;5049187;28;20079;-71
2023/03/08 05:18:47;;;;;;;17.02;9.30;;;;;;;6.59;100.00;99565.53;5043374;28;20086;-71
2023/03/08 05:21:15;;;;;;;18.73;8.95;;;;;;;6.59;100.00;99573.28;5036946;28;20029;-72
2023/03/08 05:23:41;;;;;;;21.02;9.77;;;;;;;6.59;100.00;99573.28;5060568;28;20029;-72
2023/03/08 05:26:07;;;;;;;19.98;9.75;;;;;;;6.60;100.00;99572.34;5040215;28;20527;-72
2023/03/08 05:28:36;;;;;;;22.25;9.98;;;;;;;6.60;100.00;99574.94;5051287;28;20036;-71
2023/03/08 05:31:14;;;;;;;27.20;13.60;;;;;;;6.60;100.00;99573.16;5040718;28;20041;-72
2023/03/08 05:33:39;;;;;;;19.25;9.93;;;;;;;6.75;100.00;99578.66;5046824;28;20429;-71
2023/03/08 05:36:06;;;;;;;17.95;9.88;;;;;;;6.81;100.00;99580.69;5043641;28;20029;-71
2023/03/08 05:38:32;;;;;;;20.70;9.93;;;;;;;6.81;100.00;99587.66;5048825;28;20503;-72
2023/03/08 05:41:02;;;;;;;18.50;10.15;;;;;;;6.79;100.00;99585.19;5045885;28;20115;-72
2023/03/08 05:43:28;;;;;;;19.25;9.68;;;;;;;6.81;100.00;99603.19;5048331;28;20051;-72
2023/03/08 05:46:05;;;;;;;19.45;9.55;;;;;;;6.77;100.00;99599.25;5047207;28;20491;-72
2023/03/08 05:48:33;;;;;;;20.80;10.25;;;;;;;6.76;100.00;99610.56;5052622;28;20424;-72
2023/03/08 05:51:04;;;;;;;23.08;9.85;;;;;;;6.75;100.00;99609.75;5049194;28;20666;-72
2023/03/08 05:53:29;;;;;;;16.73;9.18;;;;;;;6.75;100.00;99608.91;5042882;28;20040;-73
2023/03/08 05:55:55;;;;;;;22.63;10.48;;;;;;;6.73;100.00;99619.41;5044479;28;20044;-72
2023/03/08 05:58:20;;;;;;;19.25;11.35;;;;;;;6.73;100.00;99627.19;5052426;28;20156;-72
2023/03/08 06:00:46;;;;;;;25.05;11.07;;;;;;;6.74;100.00;99626.22;5040864;28;20021;-73
2023/03/08 06:03:11;;;;;;;21.13;10.23;;;;;;;6.73;100.00;99626.38;5045694;28;20033;-72
2023/03/08 06:05:37;;;;;;;18.20;9.57;;;;;;;6.71;100.00;99625.69;5054350;28;20028;-72
2023/03/08 06:08:02;;;;;;;17.00;10.18;;;;;;;6.73;100.00;99626.38;5036342;28;20044;-72
2023/03/08 06:10:28;;;;;;;23.55;13.15;;;;;;;6.74;100.00;99626.22;5044890;28;20037;-72
2023/03/08 06:12:53;;;;;;;25.77;13.35;;;;;;;6.78;100.00;99624.19;5043336;28;20462;-72
2023/03/08 06:15:19;;;;;;;17.02;10.57;;;;;;;6.81;100.00;99619.53;5053406;28;20124;-72
2023/03/08 06:17:44;;;;;;;21.52;11.10;;;;;;;6.84;100.00;99624.44;5056462;28;20024;-73
2023/03/08 06:20:10;;;;;;;22.98;10.48;;;;;;;6.92;100.00;99626.31;5046317;28;20433;-72
2023/03/08 06:22:36;;;;;;;21.83;10.30;;;;;;;6.98;100.00;99621.41;5056436;28;20052;-71
2023/03/08 06:25:02;;;;;;;23.70;9.48;;;;;;;7.03;100.00;99615.78;5054545;28;20110;-72
2023/03/08 06:27:28;;;;;;;27.67;10.52;;;;;;;7.11;100.00;99615.06;5051405;28;20047;-72
2023/03/08 06:29:54;;;;;;;21.75;10.95;;;;;;;7.19;100.00;99617.75;5051061;28;20032;-72
2023/03/08 06:32:20;;;;;;;24.45;10.82;;;;;;;7.26;100.00;99611.84;5055751;28;20036;-72
2023/03/08 06:34:46;;;;;;;24.45;11.95;;;;;;;7.35;100.00;99614.53;5050664;28;20412;-72
2023/03/08 06:37:12;;;;;;;28.98;12.23;;;;;;;7.39;100.00;99616.72;5046891;28;20033;-72
2023/03/08 06:39:38;;;;;;;21.00;10.75;;;;;;;7.45;100.00;99610.13;5036343;28;21400;-72
2023/03/08 06:42:03;;;;;;;18.10;10.70;;;;;;;7.53;100.00;99605.03;5046396;28;20048;-72
2023/03/08 06:44:29;;;;;;;21.75;11.05;;;;;;;7.64;100.00;99603.03;5049051;28;20028;-72
2023/03/08 06:46:55;;;;;;;14.07;10.02;;;;;;;7.76;100.00;99595.03;5052081;28;20119;-72
2023/03/08 06:49:21;;;;;;;24.30;10.15;;;;;;;7.92;100.00;99606.41;5052403;28;20600;-72
2023/03/08 06:51:47;;;;;;;19.73;11.43;;;;;;;8.16;100.00;99598.00;5047993;28;20127;-72
2023/03/08 06:54:16;;;;;;;20.80;10.63;;;;;;;8.41;100.00;99611.19;5047344;28;20125;-71
2023/03/08 06:56:43;;;;;;;16.73;10.50;;;;;;;8.57;100.00;99617.31;5037613;28;20041;-72
2023/03/08 06:59:10;;;;;;;20.83;10.85;;;;;;;8.66;100.00;99615.56;5046938;28;20124;-72
2023/03/08 07:01:35;;;;;;;22.90;10.55;;;;;;;8.70;100.00;99627.28;5051238;28;20037;-71
2023/03/08 07:04:00;;;;;;;19.90;10.10;;;;;;;8.70;100.00;99632.47;5047675;28;20091;-72
2023/03/08 07:06:26;;;;;;;22.88;11.15;;;;;;;8.68;100.00;99639.59;5054514;28;20067;-72
2023/03/08 07:08:51;;;;;;;20.25;9.18;;;;;;;8.67;100.00;99642.34;5054220;28;20052;-72
2023/03/08 07:11:17;;;;;;;22.13;10.20;;;;;;;8.68;100.00;99654.38;5051711;28;20545;-72
2023/03/08 07:13:42;;;;;;;26.67;11.10;;;;;;;8.69;100.00;99646.44;5054722;28;20025;-71
2023/03/08 07:16:10;;;;;;;22.92;10.68;;;;;;;8.60;100.00;99647.34;5058050;28;20494;-72
2023/03/08 07:18:36;;;;;;;19.50;10.30;;;;;;;8.61;100.00;99648.97;5059154;28;20039;-72
2023/03/08 07:21:03;;;;;;;23.63;9.27;;;;;;;8.69;100.00;99646.44;5052596;28;20025;-72
2023/03/08 07:23:28;;;;;;;13.45;8.85;;;;;;;8.67;100.00;99645.78;5056942;28;20134;-72
2023/03/08 07:25:54;;;;;;;18.13;8.95;;;;;;;8.67;100.00;99647.56;5056989;28;20091;-72
2023/03/08 07:28:19;;;;;;;17.05;8.40;;;;;;;8.69;100.00;99643.84;5057619;28;20400;-72
2023/03/08 07:30:49;;;;;;;19.60;8.90;;;;;;;8.75;100.00;99642.41;5059006;28;20203;-72
2023/03/08 07:33:15;;;;;;;20.80;8.13;;;;;;;8.82;100.00;99641.66;5063515;28;20463;-72
2023/03/08 07:35:40;;;;;;;21.50;8.07;;;;;;;8.98;100.00;99644.31;5066916;28;20032;-73
2023/03/08 07:38:06;;;;;;;22.45;7.88;;;;;;;9.05;100.00;99634.13;5065240;28;20453;-72
2023/03/08 07:40:31;;;;;;;13.88;7.30;;;;;;;9.17;100.00;99651.09;5049303;28;20050;-72
2023/03/08 07:42:57;;;;;;;15.18;8.07;;;;;;;9.38;100.00;99655.91;5056040;28;20029;-73
2023/03/08 07:45:22;;;;;;;18.33;7.85;;;;;;;9.69;100.00;99663.97;5055331;28;20031;-72
2023/03/08 07:47:51;;;;;;;17.10;7.43;;;;;;;9.77;100.00;99669.19;5058437;28;20043;-73
2023/03/08 07:50:17;;;;;;;15.93;8.25;;;;;;;9.84;100.00;99671.97;5046004;28;20021;-72
2023/03/08 07:52:43;;;;;;;19.73;8.35;;;;;;;10.03;100.00;99676.06;5046153;28;20362;-72
2023/03/08 07:55:10;;;;;;;15.00;7.80;;;;;;;10.05;100.00;99674.94;5046912;28;20056;-72
2023/03/08 07:57:36;;;;;;;16.17;7.35;;;;;;;10.19;100.00;99684.75;5044934;28;20556;-72
2023/03/08 08:00:06;;;;;;;12.02;4.65;;;;;;;10.30;100.00;99681.84;5053639;28;20124;-72
2023/03/08 08:02:32;;;;;;;10.23;3.72;;;;;;;10.34;100.00;99676.31;5052187;28;20029;-72
2023/03/08 08:04:57;;;;;;;6.35;3.35;;;;;;;10.49;100.00;99680.69;5056447;28;20488;-72
2023/03/08 08:07:22;;;;;;;7.60;2.33;;;;;;;10.51;100.00;99683.13;5053759;28;20416;-72
2023/03/08 08:09:48;;;;;;;8.70;2.72;;;;;;;10.62;100.00;99693.25;5054538;28;20036;-73
2023/03/08 08:12:14;;;;;;;16.75;6.93;;;;;;;10.74;100.00;99699.75;5049545;28;20033;-72
2023/03/08 08:14:39;;;;;;;13.70;6.68;;;;;;;10.77;100.00;99702.03;5050349;28;20034;-72
2023/03/08 08:17:05;;;;;;;8.35;3.00;;;;;;;10.71;100.00;99701.88;5051420;28;20103;-72
2023/03/08 08:19:30;;;;;;;11.90;5.30;;;;;;;10.60;100.00;99706.41;5052193;28;20472;-72
2023/03/08 08:21:56;;;;;;;5.57;2.30;;;;;;;10.57;99.81;99700.72;5050888;28;20484;-72
2023/03/08 08:24:22;;;;;;;5.70;1.85;;;;;;;10.56;98.81;99702.50;5044071;28;20058;-72
2023/03/08 08:26:47;;;;;;;8.00;2.85;;;;;;;10.55;98.62;99703.50;5046941;28;20519;-73
2023/03/08 08:29:12;;;;;;;8.38;2.38;;;;;;;10.64;98.55;99702.53;5048434;28;20435;-71
2023/03/08 08:31:38;;;;;;;7.00;1.98;;;;;;;10.81;98.77;99690.31;5050099;28;20409;-71
2023/03/08 08:34:03;;;;;;;6.55;2.00;;;;;;;11.18;97.90;99679.31;5047819;28;20087;-72
2023/03/08 08:36:29;;;;;;;6.13;1.88;;;;;;;11.33;96.50;99678.63;5051036;28;20029;-71
2023/03/08 08:38:54;;;;;;;4.60;1.83;;;;;;;11.58;95.89;99693.19;5049796;28;20062;-71
2023/03/08 08:41:21;;;;;;;5.50;1.52;;;;;;;11.83;94.41;99701.72;5050707;28;20168;-72
2023/03/08 08:43:47;;;;;;;5.65;1.25;;;;;;;12.02;94.52;99711.75;5053541;28;20032;-72
2023/03/08 08:46:13;;;;;;;5.53;1.63;;;;;;;12.04;93.41;99714.19;5049604;28;20112;-72
2023/03/08 08:48:39;;;;;;;7.70;2.63;;;;;;;12.04;92.09;99715.00;5048504;28;20039;-72
2023/03/08 08:51:06;;;;;;;10.73;1.88;;;;;;;12.08;91.13;99716.28;5053750;28;20037;-72
2023/03/08 08:53:32;;;;;;;7.85;2.00;;;;;;;12.12;91.54;99717.56;5049091;28;20036;-73
2023/03/08 08:55:58;;;;;;;6.55;1.70;;;;;;;11.99;92.27;99712.09;5055818;28;20056;-71
2023/03/08 08:58:24;;;;;;;4.90;1.58;;;;;;;11.68;92.47;99719.88;5050383;28;20028;-71
2023/03/08 09:00:50;;;;;;;6.47;1.60;;;;;;;11.39;92.37;99730.06;5046168;28;20045;-72
2023/03/08 09:03:16;;;;;;;4.35;1.40;;;;;;;11.37;93.66;99729.44;5045272;28;20112;-72
2023/03/08 09:05:43;;;;;;;7.75;1.52;;;;;;;11.22;93.12;99717.09;5044084;28;20175;-73
2023/03/08 09:08:10;;;;;;;5.20;1.23;;;;;;;11.15;93.40;99718.75;5043667;28;20503;-72
2023/03/08 09:10:38;;;;;;;9.98;2.03;;;;;;;11.17;93.34;99708.97;5041363;28;20052;-72
2023/03/08 09:13:04;;;;;;;8.00;1.13;;;;;;;11.43;93.01;99711.31;5039267;28;20053;-72
2023/03/08 09:15:30;;;;;;;9.20;2.00;;;;;;;11.57;92.13;99702.78;5045918;28;20516;-72
2023/03/08 09:17:55;;;;;;;5.00;1.90;;;;;;;11.91;91.86;99704.28;5043112;28;20029;-72
2023/03/08 09:20:21;;;;;;;4.22;1.02;;;;;;;12.17;91.17;99707.41;5046890;28;20032;-72
2023/03/08 09:22:46;;;;;;;4.32;1.63;;;;;;;12.39;90.20;99707.56;5039315;28;20572;-73
2023/03/08 09:25:13;;;;;;;4.20;1.45;;;;;;;12.40;89.48;99711.81;5053981;28;20033;-71
2023/03/08 09:27:40;;;;;;;5.63;2.00;;;;;;;12.18;89.18;99711.66;5048292;28;20043;-72
2023/03/08 09:30:10;;;;;;;5.32;1.90;;;;;;;11.87;89.20;99714.25;5047341;28;20145;-72
2023/03/08 09:32:35;;;;;;;5.18;1.42;;;;;;;11.98;89.71;99714.88;5033081;28;20042;-71
2023/03/08 09:35:03;;;;;;;3.20;1.20;;;;;;;12.25;90.01;99717.81;5045745;28;20136;-71
2023/03/08 09:37:29;;;;;;;2.85;1.13;;;;;;;12.40;89.77;99717.03;5059764;28;20033;-74
2023/03/08 09:39:54;;;;;;;6.50;1.70;;;;;;;12.48;89.30;99719.59;5052888;28;20462;-74
2023/03/08 09:42:29;;;;;;;4.50;1.42;;;;;;;12.51;89.38;99717.44;5044788;28;20040;-73
2023/03/08 09:45:04;;;;;;;3.85;1.17;;;;;;;12.65;90.30;99715.06;5050523;28;20045;-75
2023/03/08 09:47:35;;;;;;;5.80;1.42;;;;;;;12.85;89.02;99716.19;5054809;28;20107;-73
2023/03/08 09:50:32;;;;;;;3.40;1.10;;;;;;;12.84;86.65;99717.16;5052289;28;20045;-70
2023/03/08 09:53:23;;;;;;;4.32;1.00;;;;;;;12.79;83.84;99709.03;5041124;28;20562;-71
2023/03/08 09:56:19;;;;;;;4.10;1.17;;;;;;;12.74;85.86;99703.56;5043916;28;20061;-70
2023/03/08 09:58:54;;;;;;;8.27;1.20;;;;;;;12.49;87.07;99703.75;5031140;28;20517;-71
2023/03/08 10:01:32;;;;;;;5.03;1.13;;;;;;;12.35;89.04;99699.28;5026529;28;20035;-71
2023/03/08 10:04:18;;;;;;;6.70;1.58;;;;;;;12.41;85.19;99703.81;5033256;28;20037;-71
2023/03/08 10:07:09;;;;;;;4.00;1.17;;;;;;;12.44;86.29;99700.03;5029541;28;20155;-71
2023/03/08 10:09:42;;;;;;;5.20;1.83;;;;;;;12.57;87.91;99705.50;5027872;28;20041;-70
2023/03/08 10:12:11;;;;;;;6.05;1.20;;;;;;;12.59;87.93;99706.13;5052098;28;20061;-69
2023/03/08 10:14:42;;;;;;;5.28;0.88;;;;;;;12.41;87.92;99701.19;5052548;28;20037;-69
2023/03/08 10:17:21;;;;;;;3.88;1.77;;;;;;;12.33;87.30;99703.03;5047967;28;20108;-70
2023/03/08 10:19:58;;;;;;;8.35;1.33;;;;;;;12.42;89.18;99699.41;5032654;28;20029;-70
2023/03/08 10:22:29;;;;;;;5.65;1.33;;;;;;;12.73;88.89;99697.53;5042027;28;20029;-70
2023/03/08 10:25:17;;;;;;;4.18;0.95;;;;;;;12.96;87.99;99693.03;5042581;28;20112;-71
2023/03/08 10:27:47;;;;;;;3.60;1.00;;;;;;;12.89;86.66;99688.69;5051022;28;20037;-70
2023/03/08 10:30:17;;;;;;;2.42;0.60;;;;;;;12.92;85.94;99678.69;5052491;28;20088;-70
2023/03/08 10:32:45;;;;;;;5.57;1.10;;;;;;;12.82;87.40;99683.38;5050828;28;20033;-69
2023/03/08 10:35:12;;;;;;;3.90;0.98;;;;;;;12.85;88.32;99676.97;5052695;28;20070;-70
2023/03/08 10:37:37;;;;;;;4.35;0.70;;;;;;;12.98;88.20;99681.59;5051099;28;20033;-70
2023/03/08 10:40:15;;;;;;;1.63;0.47;;;;;;;12.92;86.98;99676.09;5049523;28;20080;-71
2023/03/08 10:42:52;;;;;;;2.05;0.50;;;;;;;12.89;87.17;99683.47;5050119;28;20029;-71
2023/03/08 10:45:24;;;;;;;5.13;0.70;;;;;;;12.92;86.45;99683.94;5050154;28;20461;-70
2023/03/08 10:47:53;;;;;;;3.85;0.60;;;;;;;13.06;86.58;99674.47;5046685;28;20120;-70
2023/03/08 10:50:21;;;;;;;1.35;0.50;;;;;;;13.28;86.02;99668.38;5042384;28;20024;-71
2023/03/08 10:52:49;;;;;;;1.52;0.50;;;;;;;13.48;85.57;99666.00;5049118;28;20210;-70
2023/03/08 10:55:21;;;;;;;6.40;0.50;;;;;;;13.70;84.04;99677.38;5050623;28;20040;-70
2023/03/08 10:57:59;;;;;;;3.60;0.40;;;;;;;13.67;79.87;99672.50;5055624;28;20025;-70
2023/03/08 11:00:33;;;;;;;2.03;0.50;;;;;;;13.69;82.43;99669.69;5050564;28;20036;-70
2023/03/08 11:03:19;;;;;;;2.90;0.40;;;;;;;13.69;79.88;99672.31;5053375;28;20822;-69
2023/03/08 11:05:51;;;;;;;;;;;;;;;13.40;74.37;99681.81;5050783;28;20111;-69
2023/03/08 11:08:20;;;;;;;2.45;0.40;;;;;;;13.42;85.23;99690.28;5051242;28;19916;-69
2023/03/08 11:10:45;;;;;;;2.42;0.40;;;;;;;13.47;83.66;99677.47;5052446;28;20033;-69
2023/03/08 11:13:22;;;;;;;2.85;0.60;;;;;;;13.38;83.37;99678.56;5053378;28;20400;-70
2023/03/08 11:16:01;;;;;;;5.95;0.60;;;;;;;13.46;83.42;99673.22;5046671;28;20034;-70
2023/03/08 11:18:49;;;;;;;3.03;0.60;;;;;;;13.42;78.83;99663.31;5047340;28;20087;-70
2023/03/08 11:21:31;;;;;;;3.63;0.70;;;;;;;13.37;84.86;99663.84;5058286;28;20467;-70
2023/03/08 11:24:17;;;;;;;2.78;0.75;;;;;;;13.49;82.15;99669.44;5054891;28;20099;-69
2023/03/08 11:26:54;;;;;;;3.83;0.60;;;;;;;13.51;84.05;99667.44;5038716;28;20041;-70